Time;durP1;ratioP1;P1;durP2;ratioP2;P2;SDS_P1;SDS_P2;PMS_P1;PMS_P2;Temp;Humidity;BMP_temperature;BMP_pressure;BME280_temperature;BME280_humidity;BME280_pressure;Samples;Min_cycle;Max_cycle;Signal;HPM_P1;HPM_P2
2022/04/24 00:01:30;;;;;;;16.20;13.60;;;11.80;99.90;;;;;;4996535;28;20444;-52
2022/04/24 00:03:59;;;;;;;15.70;13.77;;;11.70;99.90;;;;;;4996408;28;20479;-52
2022/04/24 00:06:26;;;;;;;17.43;15.10;;;11.80;99.90;;;;;;4996067;28;20488;-52
2022/04/24 00:08:53;;;;;;;15.63;13.07;;;11.70;99.90;;;;;;4996341;28;20881;-50
2022/04/24 00:11:20;;;;;;;15.77;13.80;;;11.60;99.90;;;;;;4996004;28;20454;-50
2022/04/24 00:13:48;;;;;;;18.40;16.50;;;11.70;99.90;;;;;;4995831;28;20951;-54
2022/04/24 00:16:15;;;;;;;17.17;13.87;;;11.80;99.90;;;;;;4995837;28;20479;-51
2022/04/24 00:18:42;;;;;;;17.20;14.67;;;11.80;99.90;;;;;;4995961;28;20493;-50
2022/04/24 00:21:11;;;;;;;17.43;15.63;;;11.90;99.90;;;;;;4996036;28;20456;-50
2022/04/24 00:23:38;;;;;;;18.23;13.80;;;12.00;99.90;;;;;;4996078;28;20460;-51
2022/04/24 00:26:05;;;;;;;15.90;14.17;;;11.90;99.90;;;;;;4996104;28;20452;-51
2022/04/24 00:28:33;;;;;;;16.70;14.97;;;11.80;99.90;;;;;;4995819;28;20475;-51
2022/04/24 00:31:00;;;;;;;19.50;15.30;;;11.80;99.90;;;;;;4995841;28;20456;-51
2022/04/24 00:33:27;;;;;;;16.87;13.73;;;11.80;99.90;;;;;;4995744;28;20474;-51
2022/04/24 00:35:54;;;;;;;15.10;13.50;;;11.80;99.90;;;;;;4995551;28;20436;-51
2022/04/24 00:38:23;;;;;;;20.57;14.70;;;11.80;99.90;;;;;;4995308;28;20488;-51
2022/04/24 00:40:50;;;;;;;14.97;13.40;;;11.60;99.90;;;;;;4995844;28;20810;-51
2022/04/24 00:43:19;;;;;;;17.60;12.90;;;11.50;99.90;;;;;;4995717;28;20524;-51
2022/04/24 00:45:48;;;;;;;18.63;14.57;;;11.50;99.90;;;;;;4995216;28;20986;-51
2022/04/24 00:48:15;;;;;;;16.27;14.50;;;11.70;99.90;;;;;;4995607;28;20470;-51
2022/04/24 00:50:43;;;;;;;17.23;13.90;;;11.80;99.90;;;;;;4995258;28;20447;-51
2022/04/24 00:53:10;;;;;;;19.17;13.87;;;11.80;99.90;;;;;;4995113;28;20458;-51
2022/04/24 00:55:39;;;;;;;18.20;14.43;;;11.90;99.90;;;;;;4995458;28;20464;-51
2022/04/24 00:58:07;;;;;;;18.17;15.77;;;11.80;99.90;;;;;;4995203;28;20574;-51
2022/04/24 01:00:34;;;;;;;22.73;14.00;;;11.80;99.90;;;;;;4995049;28;20451;-51
2022/04/24 01:03:01;;;;;;;15.73;14.03;;;11.90;99.90;;;;;;4995439;28;20445;-51
2022/04/24 01:05:29;;;;;;;17.20;15.40;;;11.90;99.90;;;;;;4995316;28;20474;-51
2022/04/24 01:07:56;;;;;;;17.27;15.13;;;11.90;99.90;;;;;;4995012;28;20613;-51
2022/04/24 01:10:24;;;;;;;15.57;13.83;;;12.00;99.90;;;;;;4995119;28;20550;-51
2022/04/24 01:12:52;;;;;;;19.97;15.67;;;12.10;99.90;;;;;;4995179;28;20448;-51
2022/04/24 01:15:19;;;;;;;16.80;13.73;;;12.20;99.90;;;;;;4994561;28;20452;-51
2022/04/24 01:17:47;;;;;;;18.20;13.70;;;12.30;99.90;;;;;;4994861;28;20855;-51
2022/04/24 01:20:14;;;;;;;17.87;15.07;;;12.30;99.90;;;;;;4994853;28;20440;-51
2022/04/24 01:22:43;;;;;;;15.83;14.07;;;12.00;99.90;;;;;;4994900;28;20448;-51
2022/04/24 01:25:12;;;;;;;21.00;15.53;;;11.90;99.90;;;;;;4994301;28;20456;-52
2022/04/24 01:27:39;;;;;;;21.00;14.80;;;12.00;99.90;;;;;;4994929;28;20468;-52
2022/04/24 01:30:07;;;;;;;17.40;15.60;;;11.90;99.90;;;;;;4994767;28;20455;-52
2022/04/24 01:32:35;;;;;;;17.47;14.43;;;11.90;99.90;;;;;;4994474;28;20456;-52
2022/04/24 01:35:02;;;;;;;16.27;13.77;;;12.00;99.90;;;;;;4994445;28;20487;-52
2022/04/24 01:37:29;;;;;;;19.50;15.30;;;12.00;99.90;;;;;;4994201;28;20502;-52
2022/04/24 01:39:58;;;;;;;18.73;15.13;;;12.10;99.90;;;;;;4994617;28;20546;-52
2022/04/24 01:42:25;;;;;;;17.00;14.27;;;12.10;99.90;;;;;;4994406;28;20955;-51
2022/04/24 01:44:52;;;;;;;16.90;15.03;;;11.90;99.90;;;;;;4994227;28;20931;-51
2022/04/24 01:47:19;;;;;;;23.83;14.97;;;11.90;99.90;;;;;;4994472;28;20448;-52
2022/04/24 01:49:47;;;;;;;17.23;13.50;;;11.90;99.90;;;;;;4994607;28;20506;-52
2022/04/24 01:52:14;;;;;;;18.03;13.87;;;11.90;99.90;;;;;;4994288;28;20443;-50
2022/04/24 01:54:41;;;;;;;15.47;13.77;;;11.80;99.90;;;;;;4994403;28;20448;-50
2022/04/24 01:57:10;;;;;;;17.00;14.30;;;11.70;99.90;;;;;;4994555;28;20471;-50
2022/04/24 01:59:37;;;;;;;16.23;13.90;;;11.80;99.90;;;;;;4994309;28;20574;-50
2022/04/24 02:02:04;;;;;;;17.53;13.87;;;11.70;99.90;;;;;;4993995;28;21034;-50
2022/04/24 02:04:32;;;;;;;18.90;13.80;;;11.80;99.90;;;;;;4994245;28;20873;-50
2022/04/24 02:06:59;;;;;;;17.47;14.57;;;11.80;99.90;;;;;;4994331;28;20456;-50
2022/04/24 02:09:26;;;;;;;16.97;15.27;;;11.80;99.90;;;;;;4993848;28;20472;-50
2022/04/24 02:11:53;;;;;;;16.60;14.57;;;11.90;99.90;;;;;;4993883;28;20957;-50
2022/04/24 02:14:22;;;;;;;16.57;14.87;;;11.90;99.90;;;;;;4994223;28;20456;-50
2022/04/24 02:16:49;;;;;;;16.03;13.80;;;12.00;99.90;;;;;;4993707;28;20510;-53
2022/04/24 02:19:16;;;;;;;16.97;14.37;;;12.10;99.90;;;;;;4994011;28;20566;-50
2022/04/24 02:21:43;;;;;;;17.63;14.50;;;12.10;99.90;;;;;;4994185;28;20486;-50
2022/04/24 02:24:10;;;;;;;18.87;14.10;;;12.10;99.90;;;;;;4993796;28;20462;-50
2022/04/24 02:26:37;;;;;;;15.77;14.07;;;12.00;99.90;;;;;;4994159;28;20460;-50
2022/04/24 02:29:05;;;;;;;17.10;13.97;;;12.10;99.90;;;;;;4994066;28;20514;-52
2022/04/24 02:31:34;;;;;;;15.47;13.87;;;12.10;99.90;;;;;;4994019;28;20452;-50
2022/04/24 02:34:01;;;;;;;18.23;16.33;;;11.70;99.90;;;;;;4993662;28;20541;-52
2022/04/24 02:36:33;;;;;;;17.00;14.50;;;11.80;99.90;;;;;;4995067;28;20444;-50
2022/04/24 02:39:00;;;;;;;18.83;15.37;;;11.90;99.90;;;;;;4997915;28;20545;-50
2022/04/24 02:41:28;;;;;;;17.07;15.30;;;11.80;99.90;;;;;;4997956;28;20891;-50
2022/04/24 02:43:55;;;;;;;16.77;14.73;;;11.40;99.90;;;;;;4997920;28;20526;-50
2022/04/24 02:46:22;;;;;;;16.07;14.23;;;11.30;99.90;;;;;;4997898;28;20543;-50
2022/04/24 02:48:50;;;;;;;18.07;16.17;;;11.40;99.90;;;;;;4997764;28;20463;-51
2022/04/24 02:51:18;;;;;;;18.17;15.63;;;11.40;99.90;;;;;;4997754;28;20791;-52
2022/04/24 02:53:45;;;;;;;19.10;16.87;;;11.50;99.90;;;;;;4997793;28;20447;-49
2022/04/24 02:56:12;;;;;;;18.13;16.10;;;11.40;99.90;;;;;;4997681;28;20459;-52
2022/04/24 02:58:39;;;;;;;21.80;17.20;;;11.40;99.90;;;;;;4997511;28;20494;-52
2022/04/24 03:01:06;;;;;;;18.80;16.57;;;11.40;99.90;;;;;;4997428;28;20456;-50
2022/04/24 03:03:34;;;;;;;17.47;15.20;;;11.30;99.90;;;;;;4997389;28;20436;-50
2022/04/24 03:06:02;;;;;;;22.50;17.13;;;11.20;99.90;;;;;;4997331;28;20490;-50
2022/04/24 03:08:30;;;;;;;20.20;15.60;;;11.20;99.90;;;;;;4997713;28;20471;-50
2022/04/24 03:10:57;;;;;;;18.30;16.10;;;11.10;99.90;;;;;;4997076;28;20454;-51
2022/04/24 03:13:24;;;;;;;18.33;16.47;;;11.00;99.90;;;;;;4997038;28;20526;-50
2022/04/24 03:15:51;;;;;;;20.07;17.03;;;10.90;99.90;;;;;;4997520;28;20525;-51
2022/04/24 03:18:18;;;;;;;19.03;16.87;;;10.90;99.90;;;;;;4997116;28;20510;-51
2022/04/24 03:20:46;;;;;;;22.63;18.43;;;10.90;99.90;;;;;;4997229;28;20448;-51
2022/04/24 03:23:14;;;;;;;21.10;16.60;;;10.90;99.90;;;;;;4996964;28;20466;-51
2022/04/24 03:25:41;;;;;;;19.43;15.33;;;11.00;99.90;;;;;;4997051;28;20455;-51
2022/04/24 03:28:09;;;;;;;22.87;17.87;;;11.00;99.90;;;;;;4996676;28;20478;-51
2022/04/24 03:30:36;;;;;;;23.37;17.43;;;11.00;99.90;;;;;;4997156;28;20506;-51
2022/04/24 03:33:03;;;;;;;21.20;17.30;;;11.10;99.90;;;;;;4996678;28;20535;-51
2022/04/24 03:35:30;;;;;;;18.70;16.70;;;11.00;99.90;;;;;;4996524;28;20490;-51
2022/04/24 03:37:58;;;;;;;21.23;16.63;;;11.00;99.90;;;;;;4996713;28;20947;-50
2022/04/24 03:40:26;;;;;;;23.40;19.00;;;11.00;99.90;;;;;;4996928;28;20458;-50
2022/04/24 03:42:54;;;;;;;20.33;16.60;;;11.00;99.90;;;;;;4996687;28;21014;-51
2022/04/24 03:45:21;;;;;;;20.87;16.63;;;10.90;99.90;;;;;;4996734;28;20526;-51
2022/04/24 03:47:48;;;;;;;20.90;17.37;;;10.90;99.90;;;;;;4996317;28;20472;-51
2022/04/24 03:50:16;;;;;;;23.27;18.30;;;11.00;99.90;;;;;;4996718;28;20451;-51
2022/04/24 03:52:43;;;;;;;19.53;17.03;;;11.00;99.90;;;;;;4996347;28;20992;-51
2022/04/24 03:55:10;;;;;;;18.87;15.93;;;11.10;99.90;;;;;;4996288;28;20452;-51
2022/04/24 03:57:39;;;;;;;24.47;17.57;;;11.20;99.90;;;;;;4996544;28;20505;-51
2022/04/24 04:00:08;;;;;;;21.23;17.20;;;11.20;99.90;;;;;;4996442;28;20519;-51
2022/04/24 04:02:43;;;;;;;18.43;16.07;;;11.10;99.90;;;;;;4996556;28;20451;-51
2022/04/24 04:05:11;;;;;;;20.47;18.23;;;11.00;99.90;;;;;;4996561;28;20830;-51
2022/04/24 04:07:38;;;;;;;20.90;17.53;;;11.00;99.90;;;;;;4996015;28;20475;-51
2022/04/24 04:10:07;;;;;;;21.10;17.43;;;11.10;99.90;;;;;;4996347;28;20527;-51
2022/04/24 04:12:34;;;;;;;21.10;17.30;;;11.00;99.90;;;;;;4996435;28;20455;-51
2022/04/24 04:15:04;;;;;;;20.57;17.50;;;10.80;99.90;;;;;;4996210;28;20483;-51
2022/04/24 04:17:32;;;;;;;20.70;18.07;;;10.70;99.90;;;;;;4996048;28;20526;-51
2022/04/24 04:19:59;;;;;;;22.17;18.10;;;10.70;99.90;;;;;;4995866;28;20480;-51
2022/04/24 04:22:26;;;;;;;21.00;16.70;;;10.80;99.90;;;;;;4996069;28;20534;-51
2022/04/24 04:24:54;;;;;;;21.77;19.47;;;10.80;99.90;;;;;;4995998;28;20448;-51
2022/04/24 04:27:21;;;;;;;22.70;18.47;;;10.70;99.90;;;;;;4995763;28;20459;-51
2022/04/24 04:29:48;;;;;;;21.73;19.40;;;10.80;99.90;;;;;;4995680;28;20444;-51
2022/04/24 04:32:17;;;;;;;23.00;18.63;;;10.70;99.90;;;;;;4995915;28;20531;-51
2022/04/24 04:34:44;;;;;;;25.00;19.90;;;10.90;99.90;;;;;;4995431;28;20480;-51
2022/04/24 04:37:11;;;;;;;22.23;17.07;;;10.90;99.90;;;;;;4995778;28;20466;-51
2022/04/24 04:39:38;;;;;;;21.87;16.77;;;10.90;99.90;;;;;;4995371;28;20982;-51
2022/04/24 04:42:06;;;;;;;21.90;18.80;;;11.00;99.90;;;;;;4995707;28;20456;-51
2022/04/24 04:44:33;;;;;;;20.40;17.93;;;10.70;99.90;;;;;;4995427;28;20452;-51
2022/04/24 04:47:00;;;;;;;25.17;16.30;;;10.60;99.90;;;;;;4995508;28;20514;-50
2022/04/24 04:49:29;;;;;;;20.20;16.60;;;10.70;99.90;;;;;;4995616;28;20476;-50
2022/04/24 04:51:56;;;;;;;8.07;6.90;;;10.60;99.90;;;;;;4995624;28;20474;-50
2022/04/24 04:54:23;;;;;;;5.43;3.23;;;10.30;99.90;;;;;;4995194;28;20456;-50
2022/04/24 04:56:50;;;;;;;3.57;2.73;;;9.90;99.90;;;;;;4995573;28;20514;-51
2022/04/24 04:59:18;;;;;;;2.73;2.20;;;9.70;99.90;;;;;;4994244;28;20566;-50
2022/04/24 05:01:45;;;;;;;2.30;2.10;;;9.40;99.90;;;;;;4995108;28;20817;-50
2022/04/24 05:04:12;;;;;;;1.67;1.50;;;9.20;99.90;;;;;;4995288;28;20570;-51
2022/04/24 05:06:41;;;;;;;3.30;1.63;;;9.20;99.90;;;;;;4995330;28;20460;-50
2022/04/24 05:09:08;;;;;;;1.60;1.50;;;9.10;99.90;;;;;;4995134;28;20474;-51
2022/04/24 05:11:35;;;;;;;1.77;1.30;;;9.00;99.90;;;;;;4994884;28;20542;-51
2022/04/24 05:14:02;;;;;;;1.50;1.40;;;9.10;99.90;;;;;;4994909;28;20456;-51
2022/04/24 05:16:30;;;;;;;2.20;1.33;;;9.00;99.90;;;;;;4994727;28;20456;-51
2022/04/24 05:18:58;;;;;;;1.87;1.40;;;9.00;99.90;;;;;;4994908;28;20520;-51
2022/04/24 05:21:25;;;;;;;1.37;1.27;;;8.90;99.90;;;;;;4994791;28;20958;-51
2022/04/24 05:23:54;;;;;;;2.17;1.43;;;8.90;99.90;;;;;;4994603;28;20452;-51
2022/04/24 05:26:21;;;;;;;1.10;1.00;;;8.80;99.90;;;;;;4994922;28;20464;-50
2022/04/24 05:28:49;;;;;;;2.60;1.20;;;8.90;99.90;;;;;;4994572;28;20478;-52
2022/04/24 05:31:16;;;;;;;1.30;1.20;;;8.80;99.90;;;;;;4994794;28;20448;-51
2022/04/24 05:33:43;;;;;;;1.20;1.10;;;8.70;99.90;;;;;;4994443;28;20539;-52
2022/04/24 05:36:10;;;;;;;1.47;1.17;;;8.70;99.90;;;;;;4994662;28;20426;-51
2022/04/24 05:38:37;;;;;;;1.77;1.40;;;8.70;99.90;;;;;;4994325;28;20455;-51
2022/04/24 05:41:06;;;;;;;1.10;1.00;;;8.70;99.90;;;;;;4994367;28;20543;-50
2022/04/24 05:43:33;;;;;;;1.13;1.03;;;8.60;99.90;;;;;;4994672;28;20643;-52
2022/04/24 05:46:00;;;;;;;1.33;1.23;;;8.60;99.90;;;;;;4994453;28;20950;-50
2022/04/24 05:48:27;;;;;;;1.30;1.20;;;8.60;99.90;;;;;;4994441;28;20501;-52
2022/04/24 05:50:54;;;;;;;1.20;1.10;;;8.50;99.90;;;;;;4994719;28;20813;-49
2022/04/24 05:53:22;;;;;;;4.40;1.30;;;8.40;99.90;;;;;;4994405;28;21044;-52
2022/04/24 05:55:49;;;;;;;1.30;1.20;;;8.40;99.90;;;;;;4994326;28;20443;-49
2022/04/24 05:58:18;;;;;;;1.27;1.17;;;8.30;99.90;;;;;;4994359;28;20567;-50
2022/04/24 06:00:45;;;;;;;1.67;1.20;;;8.40;99.90;;;;;;4994076;28;20479;-50
2022/04/24 06:03:12;;;;;;;1.10;1.00;;;8.40;99.90;;;;;;4994339;28;20459;-50
2022/04/24 06:05:39;;;;;;;1.20;1.10;;;8.30;99.90;;;;;;4994329;28;20531;-51
2022/04/24 06:08:07;;;;;;;1.23;1.13;;;8.40;99.90;;;;;;4993971;28;20971;-50
2022/04/24 06:10:36;;;;;;;1.50;1.10;;;8.30;99.90;;;;;;4993759;28;20440;-50
2022/04/24 06:13:03;;;;;;;1.20;1.10;;;8.30;99.90;;;;;;4994206;28;20453;-50
2022/04/24 06:15:32;;;;;;;1.30;1.20;;;8.40;99.90;;;;;;4993991;28;20443;-50
2022/04/24 06:18:00;;;;;;;1.10;1.00;;;8.40;99.90;;;;;;4993718;28;20555;-50
2022/04/24 06:20:29;;;;;;;1.10;1.00;;;8.50;99.90;;;;;;4993753;28;20480;-50
2022/04/24 06:22:57;;;;;;;1.10;1.00;;;8.40;99.90;;;;;;4994408;28;20575;-50
2022/04/24 06:25:25;;;;;;;1.20;1.10;;;8.50;99.90;;;;;;4993811;28;20543;-50
2022/04/24 06:27:53;;;;;;;1.10;1.00;;;8.40;99.90;;;;;;4994109;28;20478;-51
2022/04/24 06:30:22;;;;;;;1.40;1.20;;;8.50;99.90;;;;;;4994088;28;20450;-51
2022/04/24 06:32:51;;;;;;;1.20;1.10;;;8.50;99.90;;;;;;4993892;28;20447;-51
2022/04/24 06:35:18;;;;;;;1.10;1.00;;;8.50;99.90;;;;;;4993568;28;20480;-51
2022/04/24 06:37:47;;;;;;;1.83;1.10;;;8.60;99.90;;;;;;4993630;28;20478;-52
2022/04/24 06:40:16;;;;;;;1.20;1.10;;;8.50;99.90;;;;;;4993960;28;20484;-51
2022/04/24 06:42:51;;;;;;;1.10;1.00;;;8.50;99.90;;;;;;4993637;28;20448;-52
2022/04/24 06:45:24;;;;;;;1.10;1.00;;;8.50;99.90;;;;;;4993715;28;20462;-52
2022/04/24 06:47:54;;;;;;;1.40;1.30;;;8.60;99.90;;;;;;4993837;28;20475;-51
2022/04/24 06:50:22;;;;;;;2.00;1.00;;;8.60;99.90;;;;;;4993686;28;20448;-51
2022/04/24 06:53:00;;;;;;;1.20;1.10;;;8.50;99.90;;;;;;4993515;28;20456;-51
2022/04/24 06:55:27;;;;;;;1.67;1.10;;;8.50;99.90;;;;;;4993742;28;20455;-52
2022/04/24 06:57:55;;;;;;;1.10;1.00;;;8.50;99.90;;;;;;4993709;28;20468;-51
2022/04/24 07:00:23;;;;;;;1.10;1.00;;;8.60;99.90;;;;;;4993499;28;20860;-51
2022/04/24 07:02:51;;;;;;;2.27;1.00;;;8.70;99.90;;;;;;4993760;28;20454;-53
2022/04/24 07:05:21;;;;;;;1.10;1.00;;;8.70;99.90;;;;;;4993417;28;20456;-51
2022/04/24 07:07:49;;;;;;;1.80;1.20;;;8.80;99.90;;;;;;4993774;28;20522;-51
2022/04/24 07:10:16;;;;;;;1.30;1.20;;;8.80;99.90;;;;;;4993735;28;20444;-51
2022/04/24 07:12:47;;;;;;;1.10;1.00;;;8.80;99.90;;;;;;4993670;28;20812;-51
2022/04/24 07:15:15;;;;;;;1.77;1.07;;;8.90;99.90;;;;;;4993322;28;20444;-51
2022/04/24 07:17:42;;;;;;;1.30;1.20;;;8.90;99.90;;;;;;4993528;28;20491;-51
2022/04/24 07:20:10;;;;;;;1.20;1.10;;;8.90;99.90;;;;;;4993478;28;20510;-51
2022/04/24 07:22:49;;;;;;;1.20;1.10;;;9.00;99.90;;;;;;4994675;28;20466;-51
2022/04/24 07:25:18;;;;;;;2.13;1.10;;;9.10;99.90;;;;;;4996997;28;20499;-51
2022/04/24 07:27:46;;;;;;;1.17;1.00;;;9.00;99.90;;;;;;4997102;28;20552;-51
2022/04/24 07:30:14;;;;;;;1.30;1.17;;;9.10;99.90;;;;;;4996735;28;20458;-51
2022/04/24 07:32:43;;;;;;;1.73;1.30;;;9.00;99.90;;;;;;4996999;28;20455;-51
2022/04/24 07:35:12;;;;;;;1.60;1.20;;;8.90;99.90;;;;;;4996536;28;20514;-51
2022/04/24 07:37:39;;;;;;;2.50;1.47;;;8.90;99.90;;;;;;4996588;28;20838;-51
2022/04/24 07:40:11;;;;;;;1.20;1.10;;;9.00;99.90;;;;;;4996494;28;21017;-51
2022/04/24 07:42:49;;;;;;;1.30;1.20;;;9.00;99.90;;;;;;4996945;28;20428;-51
2022/04/24 07:45:20;;;;;;;1.93;1.10;;;9.00;99.90;;;;;;4996845;28;20849;-51
2022/04/24 07:47:48;;;;;;;1.10;1.00;;;8.90;99.90;;;;;;4996570;28;20482;-51
2022/04/24 07:50:16;;;;;;;1.50;1.30;;;8.90;99.90;;;;;;4996721;28;20448;-51
2022/04/24 07:52:44;;;;;;;1.30;1.20;;;9.00;99.90;;;;;;4996329;28;20943;-51
2022/04/24 07:55:13;;;;;;;1.10;1.00;;;9.00;99.90;;;;;;4996240;28;20448;-51
2022/04/24 07:57:41;;;;;;;1.30;1.20;;;9.00;99.90;;;;;;4996346;28;20463;-51
2022/04/24 08:00:10;;;;;;;1.53;1.40;;;8.90;99.90;;;;;;4996506;28;20495;-51
2022/04/24 08:02:48;;;;;;;1.97;1.20;;;9.00;99.90;;;;;;4995778;28;20456;-51
2022/04/24 08:05:26;;;;;;;1.10;1.00;;;9.00;99.90;;;;;;4996127;28;20447;-51
2022/04/24 08:07:54;;;;;;;1.27;1.17;;;9.00;99.90;;;;;;4996314;28;20472;-51
2022/04/24 08:10:25;;;;;;;1.20;1.10;;;8.90;99.90;;;;;;4996302;28;20448;-51
2022/04/24 08:12:53;;;;;;;1.20;1.10;;;9.00;99.90;;;;;;4996282;28;20947;-50
2022/04/24 08:15:20;;;;;;;1.40;1.30;;;8.90;99.90;;;;;;4995877;28;20451;-51
2022/04/24 08:17:47;;;;;;;1.30;1.20;;;9.10;99.90;;;;;;4995771;28;21055;-51
2022/04/24 08:20:16;;;;;;;1.27;1.17;;;9.10;99.90;;;;;;4995867;28;20488;-51
2022/04/24 08:22:44;;;;;;;1.70;1.60;;;9.30;99.90;;;;;;4995747;28;20456;-51
2022/04/24 08:25:13;;;;;;;1.23;1.10;;;9.40;99.90;;;;;;4995931;28;20479;-51
2022/04/24 08:27:46;;;;;;;7.70;1.50;;;9.50;99.90;;;;;;4996017;28;20472;-51
2022/04/24 08:30:14;;;;;;;3.23;1.20;;;9.40;99.90;;;;;;4996038;28;20945;-51
2022/04/24 08:32:42;;;;;;;1.50;1.40;;;9.40;99.90;;;;;;4995570;28;20448;-51
2022/04/24 08:35:11;;;;;;;1.20;1.10;;;9.40;99.90;;;;;;4994189;28;20475;-51
2022/04/24 08:37:38;;;;;;;2.70;1.37;;;9.50;99.90;;;;;;4995834;28;20474;-51
2022/04/24 08:40:08;;;;;;;1.33;1.23;;;9.60;99.90;;;;;;4995691;28;20488;-51
2022/04/24 08:42:35;;;;;;;1.40;1.23;;;9.50;99.90;;;;;;4995677;28;20531;-51
2022/04/24 08:45:05;;;;;;;1.30;1.20;;;9.60;99.90;;;;;;4995489;28;20452;-51
2022/04/24 08:47:33;;;;;;;2.27;2.07;;;9.60;99.90;;;;;;4995548;28;20442;-51
2022/04/24 08:50:01;;;;;;;1.73;1.50;;;9.70;99.90;;;;;;4995575;28;20459;-51
2022/04/24 08:52:30;;;;;;;2.23;1.57;;;9.70;99.90;;;;;;4995566;28;20452;-51
2022/04/24 08:54:59;;;;;;;1.63;1.53;;;9.70;99.90;;;;;;4995677;28;20546;-51
2022/04/24 08:57:27;;;;;;;1.40;1.30;;;9.70;99.90;;;;;;4995046;28;20974;-51
2022/04/24 08:59:55;;;;;;;2.60;1.70;;;9.70;99.90;;;;;;4994963;28;20515;-51
2022/04/24 09:02:24;;;;;;;2.50;1.60;;;9.80;99.90;;;;;;4995386;28;20526;-51
2022/04/24 09:04:52;;;;;;;2.63;2.20;;;9.80;99.90;;;;;;4994862;28;20545;-51
2022/04/24 09:07:20;;;;;;;2.37;1.43;;;9.90;99.90;;;;;;4995155;28;20506;-51
2022/04/24 09:09:49;;;;;;;1.40;1.30;;;9.90;99.90;;;;;;4995294;28;20460;-51
2022/04/24 09:12:18;;;;;;;2.07;1.30;;;9.90;99.90;;;;;;4995158;28;20523;-51
2022/04/24 09:14:48;;;;;;;1.70;1.60;;;10.00;99.90;;;;;;4994803;28;20542;-51
2022/04/24 09:17:19;;;;;;;1.50;1.40;;;10.10;99.90;;;;;;4994602;28;20451;-51
2022/04/24 09:19:48;;;;;;;1.50;1.37;;;10.00;99.90;;;;;;4994722;28;20452;-51
2022/04/24 09:22:16;;;;;;;1.33;1.23;;;10.10;99.90;;;;;;4994681;28;20456;-51
2022/04/24 09:24:45;;;;;;;1.87;1.73;;;10.10;99.90;;;;;;4994725;28;20832;-51
2022/04/24 09:27:22;;;;;;;2.80;1.40;;;10.00;99.90;;;;;;4995009;28;20551;-51
2022/04/24 09:29:54;;;;;;;1.50;1.40;;;10.10;99.90;;;;;;4994705;28;20442;-51
2022/04/24 09:32:22;;;;;;;1.73;1.63;;;10.10;99.90;;;;;;4994847;28;20437;-51
2022/04/24 09:34:51;;;;;;;1.80;1.43;;;10.30;99.90;;;;;;4993344;28;20479;-50
2022/04/24 09:37:19;;;;;;;1.93;1.30;;;10.10;99.90;;;;;;4994399;28;20444;-50
2022/04/24 09:39:46;;;;;;;1.50;1.40;;;10.10;99.90;;;;;;4994677;28;20854;-51
2022/04/24 09:42:15;;;;;;;2.03;1.50;;;10.00;99.90;;;;;;4994635;28;20452;-50
2022/04/24 09:44:44;;;;;;;5.57;1.40;;;10.00;99.90;;;;;;4994349;28;20487;-50
2022/04/24 09:47:12;;;;;;;1.87;1.50;;;10.00;99.90;;;;;;4994285;28;20447;-51
2022/04/24 09:49:41;;;;;;;2.60;1.63;;;9.90;99.90;;;;;;4994455;28;20451;-51
2022/04/24 09:52:14;;;;;;;1.97;1.77;;;10.10;99.90;;;;;;4994317;28;20432;-50
2022/04/24 09:54:42;;;;;;;1.87;1.67;;;10.20;99.90;;;;;;4994492;28;20452;-50
2022/04/24 09:57:11;;;;;;;2.10;1.73;;;10.10;99.90;;;;;;4994624;28;20490;-50
2022/04/24 09:59:41;;;;;;;2.17;1.80;;;10.10;99.90;;;;;;4993973;28;20503;-50
2022/04/24 10:02:09;;;;;;;1.70;1.60;;;10.10;99.90;;;;;;4994250;28;20523;-51
2022/04/24 10:04:38;;;;;;;2.00;1.73;;;10.10;99.90;;;;;;4994459;28;20448;-51
2022/04/24 10:07:06;;;;;;;3.30;1.73;;;10.30;99.90;;;;;;4994279;28;20522;-51
2022/04/24 10:09:36;;;;;;;2.53;1.60;;;10.30;99.90;;;;;;4994316;28;20528;-51
2022/04/24 10:12:06;;;;;;;1.77;1.37;;;10.30;99.90;;;;;;4994332;28;20837;-50
2022/04/24 10:14:38;;;;;;;5.27;1.80;;;10.30;99.90;;;;;;4994157;28;20452;-51
2022/04/24 10:17:23;;;;;;;2.00;1.90;;;10.30;99.90;;;;;;4994287;28;20431;-51
2022/04/24 10:20:18;;;;;;;4.90;1.77;;;10.40;99.90;;;;;;4993967;28;20906;-51
2022/04/24 10:22:49;;;;;;;1.90;1.60;;;10.50;99.90;;;;;;4993847;28;20443;-51
2022/04/24 10:25:29;;;;;;;1.60;1.50;;;10.50;99.90;;;;;;4993812;28;20466;-51
2022/04/24 10:27:56;;;;;;;2.00;1.50;;;10.50;99.90;;;;;;4993955;28;20621;-51
2022/04/24 10:30:24;;;;;;;6.03;2.00;;;10.50;99.90;;;;;;4993798;28;21014;-51
2022/04/24 10:33:14;;;;;;;2.07;1.87;;;10.20;99.90;;;;;;4993702;28;20452;-51
2022/04/24 10:35:52;;;;;;;1.60;1.50;;;10.30;99.90;;;;;;4993673;28;20492;-51
2022/04/24 10:38:20;;;;;;;2.50;2.30;;;10.40;99.90;;;;;;4993679;28;20477;-51
2022/04/24 10:41:03;;;;;;;2.53;2.33;;;10.30;99.90;;;;;;4993938;28;20484;-51
2022/04/24 10:43:38;;;;;;;1.80;1.70;;;10.40;99.90;;;;;;4993971;28;20436;-51
2022/04/24 10:46:16;;;;;;;3.10;2.00;;;10.40;99.90;;;;;;4993949;28;20442;-51
2022/04/24 10:48:44;;;;;;;2.77;1.60;;;10.50;99.90;;;;;;4993531;28;20474;-51
2022/04/24 10:51:12;;;;;;;4.00;2.07;;;10.60;99.90;;;;;;4993577;28;20448;-51
2022/04/24 10:53:53;;;;;;;2.40;1.90;;;10.40;99.90;;;;;;4993883;28;20452;-51
2022/04/24 10:56:21;;;;;;;2.30;2.00;;;10.50;99.90;;;;;;4993881;28;20488;-51
2022/04/24 10:58:50;;;;;;;2.40;1.83;;;10.60;99.90;;;;;;4996903;28;20478;-51
2022/04/24 11:01:18;;;;;;;1.70;1.60;;;10.60;99.90;;;;;;4997268;28;21011;-51
2022/04/24 11:03:46;;;;;;;2.00;1.90;;;10.50;99.90;;;;;;4997711;28;21005;-51
2022/04/24 11:06:22;;;;;;;2.00;1.80;;;10.30;99.90;;;;;;4997354;28;20811;-51
2022/04/24 11:08:49;;;;;;;3.40;2.00;;;10.30;99.90;;;;;;4997203;28;20469;-51
2022/04/24 11:11:18;;;;;;;2.03;1.83;;;10.40;99.90;;;;;;4997104;28;20443;-51
2022/04/24 11:13:47;;;;;;;2.00;1.80;;;10.30;99.90;;;;;;4996973;28;20462;-51
2022/04/24 11:16:14;;;;;;;2.77;2.10;;;10.40;99.90;;;;;;4997396;28;20447;-51
2022/04/24 11:18:46;;;;;;;1.77;1.67;;;10.60;99.90;;;;;;4996883;28;20472;-51
2022/04/24 11:21:21;;;;;;;2.00;1.90;;;10.50;99.90;;;;;;4996932;28;20475;-51
2022/04/24 11:23:49;;;;;;;2.33;1.73;;;10.60;99.90;;;;;;4996910;28;20903;-51
2022/04/24 11:26:16;;;;;;;2.90;1.70;;;10.60;99.90;;;;;;4997287;28;20466;-51
2022/04/24 11:28:45;;;;;;;2.00;1.90;;;10.50;99.90;;;;;;4997083;28;20514;-51
2022/04/24 11:31:16;;;;;;;2.20;1.87;;;10.40;99.90;;;;;;4997025;28;20448;-51
2022/04/24 11:33:55;;;;;;;2.27;1.60;;;10.40;99.90;;;;;;4996676;28;20439;-51
2022/04/24 11:36:24;;;;;;;2.00;1.80;;;10.60;99.90;;;;;;4996728;28;20443;-51
2022/04/24 11:38:52;;;;;;;3.23;1.60;;;10.70;99.90;;;;;;4996620;28;20854;-52
2022/04/24 11:41:21;;;;;;;2.30;1.80;;;10.70;99.90;;;;;;4996497;28;21029;-51
2022/04/24 11:43:48;;;;;;;1.80;1.70;;;10.70;99.90;;;;;;4996978;28;20531;-51
2022/04/24 11:51:52;;;;;;;2.07;1.60;;;10.90;99.90;;;;;;4996725;28;20411;-50
2022/04/24 11:54:20;;;;;;;1.80;1.70;;;10.80;99.90;;;;;;4996677;28;20463;-50
2022/04/24 11:56:51;;;;;;;2.20;1.80;;;10.60;99.90;;;;;;4996235;28;20470;-51
2022/04/24 11:59:20;;;;;;;1.70;1.60;;;10.60;99.90;;;;;;4996285;28;20475;-51
2022/04/24 12:01:57;;;;;;;1.40;1.30;;;10.70;99.90;;;;;;4996428;28;20574;-51
2022/04/24 12:04:28;;;;;;;1.67;1.50;;;10.80;99.90;;;;;;4996221;28;20834;-51
2022/04/24 12:07:02;;;;;;;1.70;1.47;;;10.90;99.90;;;;;;4996466;28;20440;-51
2022/04/24 12:09:29;;;;;;;1.53;1.43;;;11.00;99.90;;;;;;4996085;28;20881;-51
2022/04/24 12:12:06;;;;;;;1.30;1.20;;;11.00;99.90;;;;;;4996300;28;20444;-51
2022/04/24 12:14:33;;;;;;;1.80;1.47;;;11.00;99.90;;;;;;4996215;28;20456;-51
2022/04/24 12:17:04;;;;;;;2.90;1.90;;;11.00;99.90;;;;;;4995928;28;20978;-51
2022/04/24 12:19:32;;;;;;;1.93;1.53;;;10.90;99.90;;;;;;4996256;28;20587;-51
2022/04/24 12:22:06;;;;;;;1.73;1.63;;;10.90;99.90;;;;;;4996092;28;20631;-51
2022/04/24 12:24:41;;;;;;;1.70;1.60;;;10.90;99.90;;;;;;4995879;28;20428;-51
2022/04/24 12:27:10;;;;;;;1.83;1.50;;;10.90;99.90;;;;;;4996285;28;20459;-50
2022/04/24 12:29:42;;;;;;;1.53;1.43;;;11.00;99.90;;;;;;4995724;28;20476;-50
2022/04/24 12:32:14;;;;;;;1.73;1.57;;;11.00;99.90;;;;;;4996101;28;20471;-52
2022/04/24 12:34:42;;;;;;;1.60;1.50;;;11.10;99.90;;;;;;4995619;28;20554;-51
2022/04/24 12:37:09;;;;;;;1.57;1.47;;;11.00;99.90;;;;;;4995535;28;20454;-51
2022/04/24 12:39:38;;;;;;;1.70;1.60;;;11.00;99.90;;;;;;4995630;28;20463;-51
2022/04/24 12:42:14;;;;;;;1.60;1.43;;;11.00;99.90;;;;;;4995686;28;20843;-51
2022/04/24 12:44:42;;;;;;;1.40;1.30;;;11.10;99.90;;;;;;4995443;28;20479;-51
2022/04/24 12:47:11;;;;;;;2.70;1.53;;;11.30;99.90;;;;;;4995216;28;20464;-50
2022/04/24 12:49:39;;;;;;;2.37;1.60;;;11.40;99.90;;;;;;4995303;28;20997;-51
2022/04/24 12:52:07;;;;;;;2.70;1.43;;;11.40;99.90;;;;;;4995516;28;20448;-51
2022/04/24 12:54:34;;;;;;;3.93;1.30;;;11.30;99.90;;;;;;4995434;28;20456;-51
2022/04/24 12:57:02;;;;;;;1.60;1.33;;;11.20;99.90;;;;;;4995621;28;20460;-51